sensor_id;sensor_type;location;lat;lon;timestamp;temperature;humidity
1091;DHT22;534;48.704;9.122;2023-04-30T04:02:19;14.30;75.60
1091;DHT22;534;48.704;9.122;2023-04-30T04:04:46;14.20;75.70
1091;DHT22;534;48.704;9.122;2023-04-30T04:07:13;14.20;75.80
1091;DHT22;534;48.704;9.122;2023-04-30T04:09:40;14.20;75.70
1091;DHT22;534;48.704;9.122;2023-04-30T04:12:07;14.10;75.70
1091;DHT22;534;48.704;9.122;2023-04-30T04:14:34;14.10;75.70
1091;DHT22;534;48.704;9.122;2023-04-30T04:17:00;13.90;76.20
1091;DHT22;534;48.704;9.122;2023-04-30T04:19:31;13.90;76.10
1091;DHT22;534;48.704;9.122;2023-04-30T04:21:58;14.00;76.00
1091;DHT22;534;48.704;9.122;2023-04-30T04:24:25;14.00;75.90
1091;DHT22;534;48.704;9.122;2023-04-30T04:26:52;14.00;75.80
1091;DHT22;534;48.704;9.122;2023-04-30T04:29:19;14.00;76.00
1091;DHT22;534;48.704;9.122;2023-04-30T04:31:46;14.00;75.90
1091;DHT22;534;48.704;9.122;2023-04-30T04:34:13;14.00;75.80
1091;DHT22;534;48.704;9.122;2023-04-30T04:36:41;14.00;75.70
1091;DHT22;534;48.704;9.122;2023-04-30T04:39:08;14.10;75.60
1091;DHT22;534;48.704;9.122;2023-04-30T04:41:36;14.10;75.50
1091;DHT22;534;48.704;9.122;2023-04-30T04:44:03;14.10;75.40
1091;DHT22;534;48.704;9.122;2023-04-30T04:46:30;14.10;75.40
1091;DHT22;534;48.704;9.122;2023-04-30T04:48:57;14.10;75.20
1091;DHT22;534;48.704;9.122;2023-04-30T04:51:24;14.10;75.20
1091;DHT22;534;48.704;9.122;2023-04-30T04:53:52;14.10;75.30
1091;DHT22;534;48.704;9.122;2023-04-30T04:56:19;14.10;75.20
1091;DHT22;534;48.704;9.122;2023-04-30T04:58:46;14.00;75.20
1091;DHT22;534;48.704;9.122;2023-04-30T05:01:12;14.10;75.10
1091;DHT22;534;48.704;9.122;2023-04-30T05:03:39;13.90;75.30
1091;DHT22;534;48.704;9.122;2023-04-30T05:06:06;13.80;75.90
1091;DHT22;534;48.704;9.122;2023-04-30T05:08:33;13.90;76.00
1091;DHT22;534;48.704;9.122;2023-04-30T05:11:01;13.70;76.00
1091;DHT22;534;48.704;9.122;2023-04-30T05:13:27;13.60;76.70
1091;DHT22;534;48.704;9.122;2023-04-30T05:15:54;13.90;76.40
1091;DHT22;534;48.704;9.122;2023-04-30T05:18:21;14.10;76.10
1091;DHT22;534;48.704;9.122;2023-04-30T05:20:48;14.20;75.40
1091;DHT22;534;48.704;9.122;2023-04-30T05:23:15;14.30;75.00
1091;DHT22;534;48.704;9.122;2023-04-30T05:25:41;14.30;74.90
1091;DHT22;534;48.704;9.122;2023-04-30T05:28:09;14.50;74.60
1091;DHT22;534;48.704;9.122;2023-04-30T05:30:36;14.50;74.60
1091;DHT22;534;48.704;9.122;2023-04-30T05:33:03;14.60;74.50
1091;DHT22;534;48.704;9.122;2023-04-30T05:35:29;14.60;73.90
1091;DHT22;534;48.704;9.122;2023-04-30T05:38:00;14.50;74.40
1091;DHT22;534;48.704;9.122;2023-04-30T05:40:27;14.60;74.40
1091;DHT22;534;48.704;9.122;2023-04-30T05:42:53;14.50;74.30
1091;DHT22;534;48.704;9.122;2023-04-30T05:45:22;14.60;74.20
1091;DHT22;534;48.704;9.122;2023-04-30T05:47:48;14.80;73.70
1091;DHT22;534;48.704;9.122;2023-04-30T05:50:15;14.60;74.10
1091;DHT22;534;48.704;9.122;2023-04-30T05:52:42;14.50;74.00
1091;DHT22;534;48.704;9.122;2023-04-30T05:55:09;14.40;74.60
1091;DHT22;534;48.704;9.122;2023-04-30T05:57:36;14.30;74.40
1091;DHT22;534;48.704;9.122;2023-04-30T06:00:03;14.10;75.00
1091;DHT22;534;48.704;9.122;2023-04-30T06:02:32;14.20;74.40
1091;DHT22;534;48.704;9.122;2023-04-30T06:04:59;14.20;75.30
1091;DHT22;534;48.704;9.122;2023-04-30T06:07:27;14.10;75.30
1091;DHT22;534;48.704;9.122;2023-04-30T06:09:55;14.10;75.50
1091;DHT22;534;48.704;9.122;2023-04-30T06:12:21;14.00;75.70
1091;DHT22;534;48.704;9.122;2023-04-30T06:14:48;13.90;76.00
1091;DHT22;534;48.704;9.122;2023-04-30T06:17:15;13.90;75.90
1091;DHT22;534;48.704;9.122;2023-04-30T06:19:43;13.90;76.30
1091;DHT22;534;48.704;9.122;2023-04-30T06:22:10;13.90;76.00
1091;DHT22;534;48.704;9.122;2023-04-30T06:24:36;13.90;76.20
1091;DHT22;534;48.704;9.122;2023-04-30T06:27:03;13.90;76.20
1091;DHT22;534;48.704;9.122;2023-04-30T06:29:30;13.90;76.40
1091;DHT22;534;48.704;9.122;2023-04-30T06:31:56;14.10;75.80
1091;DHT22;534;48.704;9.122;2023-04-30T06:34:23;14.00;75.20
1091;DHT22;534;48.704;9.122;2023-04-30T06:36:51;13.80;75.70
1091;DHT22;534;48.704;9.122;2023-04-30T06:39:18;13.80;76.20
1091;DHT22;534;48.704;9.122;2023-04-30T06:41:45;14.00;76.60
1091;DHT22;534;48.704;9.122;2023-04-30T06:44:12;14.00;75.50
1091;DHT22;534;48.704;9.122;2023-04-30T06:46:39;14.00;75.10
1091;DHT22;534;48.704;9.122;2023-04-30T06:49:06;13.90;75.70
1091;DHT22;534;48.704;9.122;2023-04-30T06:51:33;14.10;75.50
1091;DHT22;534;48.704;9.122;2023-04-30T06:54:01;14.10;74.90
1091;DHT22;534;48.704;9.122;2023-04-30T06:56:27;14.10;75.60
1091;DHT22;534;48.704;9.122;2023-04-30T06:58:54;14.00;75.00
1091;DHT22;534;48.704;9.122;2023-04-30T07:01:21;14.10;75.00
1091;DHT22;534;48.704;9.122;2023-04-30T07:03:47;14.10;75.40
1091;DHT22;534;48.704;9.122;2023-04-30T07:06:15;14.20;75.30
1091;DHT22;534;48.704;9.122;2023-04-30T07:08:42;14.60;75.10
1091;DHT22;534;48.704;9.122;2023-04-30T07:11:10;14.90;73.20
1091;DHT22;534;48.704;9.122;2023-04-30T07:13:37;15.10;72.80
1091;DHT22;534;48.704;9.122;2023-04-30T07:16:04;15.20;72.60
1091;DHT22;534;48.704;9.122;2023-04-30T07:18:31;15.30;72.60
1091;DHT22;534;48.704;9.122;2023-04-30T07:20:57;15.40;71.40
1091;DHT22;534;48.704;9.122;2023-04-30T07:23:24;15.50;71.40
1091;DHT22;534;48.704;9.122;2023-04-30T07:25:51;15.50;71.80
1091;DHT22;534;48.704;9.122;2023-04-30T07:28:19;15.80;71.10
1091;DHT22;534;48.704;9.122;2023-04-30T07:30:45;15.90;70.40
1091;DHT22;534;48.704;9.122;2023-04-30T07:33:12;16.00;70.30
1091;DHT22;534;48.704;9.122;2023-04-30T07:35:39;16.10;69.20
1091;DHT22;534;48.704;9.122;2023-04-30T07:38:05;15.90;69.20
1091;DHT22;534;48.704;9.122;2023-04-30T07:40:32;16.00;69.80
1091;DHT22;534;48.704;9.122;2023-04-30T07:42:59;16.00;69.60
1091;DHT22;534;48.704;9.122;2023-04-30T07:45:27;16.20;69.60
1091;DHT22;534;48.704;9.122;2023-04-30T07:47:54;16.60;69.00
1091;DHT22;534;48.704;9.122;2023-04-30T07:50:21;16.80;68.00
1091;DHT22;534;48.704;9.122;2023-04-30T07:52:48;16.50;67.20
1091;DHT22;534;48.704;9.122;2023-04-30T07:55:14;16.10;68.10
1091;DHT22;534;48.704;9.122;2023-04-30T07:57:41;16.20;68.10
1091;DHT22;534;48.704;9.122;2023-04-30T08:00:08;16.20;69.00
1091;DHT22;534;48.704;9.122;2023-04-30T08:02:37;16.40;69.10
1091;DHT22;534;48.704;9.122;2023-04-30T08:05:04;16.50;67.10
1091;DHT22;534;48.704;9.122;2023-04-30T08:07:30;16.60;66.20
1091;DHT22;534;48.704;9.122;2023-04-30T08:09:57;16.30;65.40
1091;DHT22;534;48.704;9.122;2023-04-30T08:12:24;16.10;66.90
1091;DHT22;534;48.704;9.122;2023-04-30T08:14:58;16.20;68.10
1091;DHT22;534;48.704;9.122;2023-04-30T08:17:25;16.60;66.60
1091;DHT22;534;48.704;9.122;2023-04-30T08:19:53;16.60;66.50
1091;DHT22;534;48.704;9.122;2023-04-30T08:22:20;16.60;65.90
1091;DHT22;534;48.704;9.122;2023-04-30T08:24:46;16.80;66.60
1091;DHT22;534;48.704;9.122;2023-04-30T08:27:14;16.60;66.00
1091;DHT22;534;48.704;9.122;2023-04-30T08:29:41;16.40;66.10
1091;DHT22;534;48.704;9.122;2023-04-30T08:32:07;16.50;66.80
1091;DHT22;534;48.704;9.122;2023-04-30T08:34:34;16.70;66.70
1091;DHT22;534;48.704;9.122;2023-04-30T08:37:02;16.50;66.00
1091;DHT22;534;48.704;9.122;2023-04-30T08:39:29;16.60;66.40
1091;DHT22;534;48.704;9.122;2023-04-30T08:41:55;16.70;65.90
1091;DHT22;534;48.704;9.122;2023-04-30T08:44:26;17.00;65.20
1091;DHT22;534;48.704;9.122;2023-04-30T08:46:54;16.90;65.20
1091;DHT22;534;48.704;9.122;2023-04-30T08:49:22;16.80;65.50
1091;DHT22;534;48.704;9.122;2023-04-30T08:51:49;16.90;65.30
1091;DHT22;534;48.704;9.122;2023-04-30T08:54:18;16.70;65.50
1091;DHT22;534;48.704;9.122;2023-04-30T08:56:45;16.50;64.90
1091;DHT22;534;48.704;9.122;2023-04-30T08:59:12;16.60;65.30
1091;DHT22;534;48.704;9.122;2023-04-30T09:01:40;16.40;63.60
1091;DHT22;534;48.704;9.122;2023-04-30T09:04:07;16.00;64.20
1091;DHT22;534;48.704;9.122;2023-04-30T09:06:33;16.10;64.70
1091;DHT22;534;48.704;9.122;2023-04-30T09:09:08;16.00;64.60
1091;DHT22;534;48.704;9.122;2023-04-30T09:11:36;15.70;65.30
1091;DHT22;534;48.704;9.122;2023-04-30T09:14:03;15.60;65.40
1091;DHT22;534;48.704;9.122;2023-04-30T09:16:44;15.40;65.50
1091;DHT22;534;48.704;9.122;2023-04-30T09:19:22;15.30;65.70
1091;DHT22;534;48.704;9.122;2023-04-30T09:21:48;15.30;65.70
1091;DHT22;534;48.704;9.122;2023-04-30T09:24:15;15.20;65.30
1091;DHT22;534;48.704;9.122;2023-04-30T09:26:45;15.40;66.40
1091;DHT22;534;48.704;9.122;2023-04-30T09:29:12;15.60;64.90
1091;DHT22;534;48.704;9.122;2023-04-30T09:31:41;15.60;63.80
1091;DHT22;534;48.704;9.122;2023-04-30T09:34:08;15.70;64.20
1091;DHT22;534;48.704;9.122;2023-04-30T09:36:35;15.90;64.30
1091;DHT22;534;48.704;9.122;2023-04-30T09:39:06;16.00;64.30
1091;DHT22;534;48.704;9.122;2023-04-30T09:41:33;16.00;63.70
1091;DHT22;534;48.704;9.122;2023-04-30T09:44:02;15.90;62.90
1091;DHT22;534;48.704;9.122;2023-04-30T09:46:30;15.90;63.10
1091;DHT22;534;48.704;9.122;2023-04-30T09:48:58;15.80;63.20
1091;DHT22;534;48.704;9.122;2023-04-30T09:51:25;15.80;62.00
1091;DHT22;534;48.704;9.122;2023-04-30T09:53:52;15.80;63.80
1091;DHT22;534;48.704;9.122;2023-04-30T09:56:22;15.90;62.70
1091;DHT22;534;48.704;9.122;2023-04-30T09:58:50;15.90;63.30
1091;DHT22;534;48.704;9.122;2023-04-30T10:01:20;16.00;62.60
1091;DHT22;534;48.704;9.122;2023-04-30T10:03:47;16.20;62.80
1091;DHT22;534;48.704;9.122;2023-04-30T10:06:15;16.30;62.60
1091;DHT22;534;48.704;9.122;2023-04-30T10:08:45;16.50;62.60
1091;DHT22;534;48.704;9.122;2023-04-30T10:11:17;16.60;61.80
1091;DHT22;534;48.704;9.122;2023-04-30T10:13:48;16.70;61.80
1091;DHT22;534;48.704;9.122;2023-04-30T10:16:26;16.50;60.10
1091;DHT22;534;48.704;9.122;2023-04-30T10:18:58;16.40;60.40
1091;DHT22;534;48.704;9.122;2023-04-30T10:21:26;16.30;60.50
1091;DHT22;534;48.704;9.122;2023-04-30T10:23:54;16.40;60.90
1091;DHT22;534;48.704;9.122;2023-04-30T10:26:21;16.50;60.60
1091;DHT22;534;48.704;9.122;2023-04-30T10:28:49;16.90;60.40
1091;DHT22;534;48.704;9.122;2023-04-30T10:31:16;17.00;59.70
1091;DHT22;534;48.704;9.122;2023-04-30T10:33:53;17.10;59.20
1091;DHT22;534;48.704;9.122;2023-04-30T10:36:28;16.90;59.40
1091;DHT22;534;48.704;9.122;2023-04-30T10:38:59;16.70;61.20
1091;DHT22;534;48.704;9.122;2023-04-30T10:41:26;16.70;61.70
1091;DHT22;534;48.704;9.122;2023-04-30T10:43:56;16.40;60.20
1091;DHT22;534;48.704;9.122;2023-04-30T10:46:23;16.50;60.70
1091;DHT22;534;48.704;9.122;2023-04-30T10:48:53;16.40;60.00
1091;DHT22;534;48.704;9.122;2023-04-30T10:51:21;16.30;60.70
1091;DHT22;534;48.704;9.122;2023-04-30T10:53:49;16.20;61.70
1091;DHT22;534;48.704;9.122;2023-04-30T10:56:28;16.30;61.80
1091;DHT22;534;48.704;9.122;2023-04-30T10:58:58;16.50;60.30
1091;DHT22;534;48.704;9.122;2023-04-30T11:01:25;16.70;60.00
1091;DHT22;534;48.704;9.122;2023-04-30T11:04:05;16.80;58.60
1091;DHT22;534;48.704;9.122;2023-04-30T11:07:08;17.10;59.10
1091;DHT22;534;48.704;9.122;2023-04-30T11:09:38;17.10;57.60
1091;DHT22;534;48.704;9.122;2023-04-30T11:12:10;17.10;58.40
1091;DHT22;534;48.704;9.122;2023-04-30T11:14:42;17.30;58.40
1091;DHT22;534;48.704;9.122;2023-04-30T11:17:11;17.10;57.90
1091;DHT22;534;48.704;9.122;2023-04-30T11:19:49;17.00;57.70
1091;DHT22;534;48.704;9.122;2023-04-30T11:22:18;16.80;59.00
1091;DHT22;534;48.704;9.122;2023-04-30T11:24:52;16.90;58.60
1091;DHT22;534;48.704;9.122;2023-04-30T11:27:20;16.80;59.80
1091;DHT22;534;48.704;9.122;2023-04-30T11:29:48;17.00;58.60
1091;DHT22;534;48.704;9.122;2023-04-30T11:32:16;17.10;57.90
1091;DHT22;534;48.704;9.122;2023-04-30T11:34:43;17.20;57.70
1091;DHT22;534;48.704;9.122;2023-04-30T11:37:14;17.10;57.00
1091;DHT22;534;48.704;9.122;2023-04-30T11:39:42;17.00;56.50
1091;DHT22;534;48.704;9.122;2023-04-30T11:42:08;17.00;58.10
1091;DHT22;534;48.704;9.122;2023-04-30T11:44:35;16.90;58.50
1091;DHT22;534;48.704;9.122;2023-04-30T11:47:03;16.80;58.60
1091;DHT22;534;48.704;9.122;2023-04-30T11:49:31;16.70;57.90
1091;DHT22;534;48.704;9.122;2023-04-30T11:51:58;16.90;59.50
1091;DHT22;534;48.704;9.122;2023-04-30T11:54:26;17.00;58.70
1091;DHT22;534;48.704;9.122;2023-04-30T11:56:56;16.90;57.90
1091;DHT22;534;48.704;9.122;2023-04-30T11:59:28;17.00;57.60
1091;DHT22;534;48.704;9.122;2023-04-30T12:01:55;17.10;57.60
1091;DHT22;534;48.704;9.122;2023-04-30T12:04:22;17.20;58.30
1091;DHT22;534;48.704;9.122;2023-04-30T12:06:49;17.30;57.60
1091;DHT22;534;48.704;9.122;2023-04-30T12:09:16;17.00;57.30
1091;DHT22;534;48.704;9.122;2023-04-30T12:11:46;17.00;57.80
1091;DHT22;534;48.704;9.122;2023-04-30T12:14:13;17.10;57.50
1091;DHT22;534;48.704;9.122;2023-04-30T12:16:41;17.10;56.70
1091;DHT22;534;48.704;9.122;2023-04-30T12:19:10;17.10;56.90
1091;DHT22;534;48.704;9.122;2023-04-30T12:21:37;17.20;57.80
1091;DHT22;534;48.704;9.122;2023-04-30T12:24:04;17.00;57.50
1091;DHT22;534;48.704;9.122;2023-04-30T12:26:35;17.00;58.30
1091;DHT22;534;48.704;9.122;2023-04-30T12:29:05;16.80;58.10
1091;DHT22;534;48.704;9.122;2023-04-30T12:31:33;17.10;58.20
1091;DHT22;534;48.704;9.122;2023-04-30T12:34:05;17.40;59.10
1091;DHT22;534;48.704;9.122;2023-04-30T12:36:33;17.40;56.90
1091;DHT22;534;48.704;9.122;2023-04-30T12:39:08;17.20;56.50
1091;DHT22;534;48.704;9.122;2023-04-30T12:41:36;17.50;57.50
1091;DHT22;534;48.704;9.122;2023-04-30T12:44:20;17.80;56.60
1091;DHT22;534;48.704;9.122;2023-04-30T12:46:47;17.80;56.20
1091;DHT22;534;48.704;9.122;2023-04-30T12:49:24;17.90;56.50
1091;DHT22;534;48.704;9.122;2023-04-30T12:51:57;18.20;56.10
1091;DHT22;534;48.704;9.122;2023-04-30T12:54:25;18.10;55.80
1091;DHT22;534;48.704;9.122;2023-04-30T12:56:59;18.10;56.20
1091;DHT22;534;48.704;9.122;2023-04-30T12:59:28;18.30;56.20
1091;DHT22;534;48.704;9.122;2023-04-30T13:01:54;18.40;56.00
1091;DHT22;534;48.704;9.122;2023-04-30T13:04:21;18.60;55.70
1091;DHT22;534;48.704;9.122;2023-04-30T13:06:48;18.70;55.60
1091;DHT22;534;48.704;9.122;2023-04-30T13:09:15;18.30;55.50
1091;DHT22;534;48.704;9.122;2023-04-30T13:11:41;18.10;56.80
1091;DHT22;534;48.704;9.122;2023-04-30T13:14:08;17.90;56.20
1091;DHT22;534;48.704;9.122;2023-04-30T13:16:38;17.80;56.90
1091;DHT22;534;48.704;9.122;2023-04-30T13:19:05;18.00;57.30
1091;DHT22;534;48.704;9.122;2023-04-30T13:21:32;18.10;56.70
1091;DHT22;534;48.704;9.122;2023-04-30T13:23:59;18.30;56.60
1091;DHT22;534;48.704;9.122;2023-04-30T13:26:26;18.70;55.30
1091;DHT22;534;48.704;9.122;2023-04-30T13:28:53;19.10;54.80
1091;DHT22;534;48.704;9.122;2023-04-30T13:31:19;19.20;53.60
1091;DHT22;534;48.704;9.122;2023-04-30T13:33:48;19.10;56.00
1091;DHT22;534;48.704;9.122;2023-04-30T13:36:15;19.30;53.90
1091;DHT22;534;48.704;9.122;2023-04-30T13:38:42;19.20;54.50
1091;DHT22;534;48.704;9.122;2023-04-30T13:41:09;19.20;54.70
1091;DHT22;534;48.704;9.122;2023-04-30T13:43:35;19.10;54.60
1091;DHT22;534;48.704;9.122;2023-04-30T13:46:03;18.80;54.70
1091;DHT22;534;48.704;9.122;2023-04-30T13:48:30;18.60;55.00
1091;DHT22;534;48.704;9.122;2023-04-30T13:50:59;18.40;56.00
1091;DHT22;534;48.704;9.122;2023-04-30T13:53:26;18.30;55.10
1091;DHT22;534;48.704;9.122;2023-04-30T13:55:53;18.30;55.70
1091;DHT22;534;48.704;9.122;2023-04-30T13:58:19;18.10;56.00
1091;DHT22;534;48.704;9.122;2023-04-30T14:00:46;18.40;55.20
1091;DHT22;534;48.704;9.122;2023-04-30T14:03:13;18.40;55.30
1091;DHT22;534;48.704;9.122;2023-04-30T14:05:40;18.40;55.50
1091;DHT22;534;48.704;9.122;2023-04-30T14:08:08;18.20;55.50
1091;DHT22;534;48.704;9.122;2023-04-30T14:10:35;18.30;56.40
1091;DHT22;534;48.704;9.122;2023-04-30T14:13:02;18.40;55.00
1091;DHT22;534;48.704;9.122;2023-04-30T14:15:29;18.10;55.50
1091;DHT22;534;48.704;9.122;2023-04-30T14:17:57;18.00;56.50
1091;DHT22;534;48.704;9.122;2023-04-30T14:20:24;17.70;56.70
1091;DHT22;534;48.704;9.122;2023-04-30T14:22:52;17.80;56.30
1091;DHT22;534;48.704;9.122;2023-04-30T14:25:20;17.80;57.00
1091;DHT22;534;48.704;9.122;2023-04-30T14:27:48;17.80;56.50
1091;DHT22;534;48.704;9.122;2023-04-30T14:30:15;17.90;55.90
1091;DHT22;534;48.704;9.122;2023-04-30T14:32:41;18.00;56.40
1091;DHT22;534;48.704;9.122;2023-04-30T14:35:08;18.30;56.50
1091;DHT22;534;48.704;9.122;2023-04-30T14:37:35;18.30;55.90
1091;DHT22;534;48.704;9.122;2023-04-30T14:40:02;18.50;56.00
1091;DHT22;534;48.704;9.122;2023-04-30T14:42:32;18.40;55.30
1091;DHT22;534;48.704;9.122;2023-04-30T14:44:59;18.50;55.40
1091;DHT22;534;48.704;9.122;2023-04-30T14:47:26;18.50;54.80
1091;DHT22;534;48.704;9.122;2023-04-30T14:49:53;18.60;54.40
1091;DHT22;534;48.704;9.122;2023-04-30T14:52:20;18.70;54.50
1091;DHT22;534;48.704;9.122;2023-04-30T14:54:46;19.00;54.30
1091;DHT22;534;48.704;9.122;2023-04-30T14:57:13;19.30;53.90
1091;DHT22;534;48.704;9.122;2023-04-30T14:59:41;19.40;52.50
1091;DHT22;534;48.704;9.122;2023-04-30T15:02:08;19.50;53.20
1091;DHT22;534;48.704;9.122;2023-04-30T15:04:35;19.50;52.50
1091;DHT22;534;48.704;9.122;2023-04-30T15:07:02;19.60;53.00
1091;DHT22;534;48.704;9.122;2023-04-30T15:09:28;19.60;52.10
1091;DHT22;534;48.704;9.122;2023-04-30T15:11:55;19.70;52.70
1091;DHT22;534;48.704;9.122;2023-04-30T15:14:22;19.90;51.90
1091;DHT22;534;48.704;9.122;2023-04-30T15:16:50;20.10;51.40
1091;DHT22;534;48.704;9.122;2023-04-30T15:19:17;20.70;50.50
1091;DHT22;534;48.704;9.122;2023-04-30T15:21:43;21.00;49.80
1091;DHT22;534;48.704;9.122;2023-04-30T15:24:10;21.10;49.70
1091;DHT22;534;48.704;9.122;2023-04-30T15:26:38;21.40;49.30
1091;DHT22;534;48.704;9.122;2023-04-30T15:29:05;21.20;49.00
1091;DHT22;534;48.704;9.122;2023-04-30T15:31:33;20.80;50.60
1091;DHT22;534;48.704;9.122;2023-04-30T15:34:01;20.40;50.90
1091;DHT22;534;48.704;9.122;2023-04-30T15:36:28;20.10;50.80
1091;DHT22;534;48.704;9.122;2023-04-30T15:38:54;20.00;51.30
1091;DHT22;534;48.704;9.122;2023-04-30T15:41:21;19.90;51.40
1091;DHT22;534;48.704;9.122;2023-04-30T15:43:48;19.80;51.90
1091;DHT22;534;48.704;9.122;2023-04-30T15:46:15;19.70;51.20
1091;DHT22;534;48.704;9.122;2023-04-30T15:48:41;19.60;52.10
1091;DHT22;534;48.704;9.122;2023-04-30T15:51:09;19.30;52.60
1091;DHT22;534;48.704;9.122;2023-04-30T15:53:36;19.00;53.20
1091;DHT22;534;48.704;9.122;2023-04-30T15:56:03;18.80;53.70
1091;DHT22;534;48.704;9.122;2023-04-30T15:58:30;18.70;53.40
1091;DHT22;534;48.704;9.122;2023-04-30T16:00:56;18.30;54.80
1091;DHT22;534;48.704;9.122;2023-04-30T16:03:23;18.00;55.10
1091;DHT22;534;48.704;9.122;2023-04-30T16:05:50;17.90;55.20
1091;DHT22;534;48.704;9.122;2023-04-30T16:08:18;18.00;54.80
1091;DHT22;534;48.704;9.122;2023-04-30T16:10:45;18.00;55.00
1091;DHT22;534;48.704;9.122;2023-04-30T16:13:12;18.10;54.90
1091;DHT22;534;48.704;9.122;2023-04-30T16:15:39;18.00;55.20
1091;DHT22;534;48.704;9.122;2023-04-30T16:18:05;17.80;56.10
1091;DHT22;534;48.704;9.122;2023-04-30T16:20:32;17.80;55.90
1091;DHT22;534;48.704;9.122;2023-04-30T16:22:59;17.90;56.00
1091;DHT22;534;48.704;9.122;2023-04-30T16:25:27;18.00;55.10
1091;DHT22;534;48.704;9.122;2023-04-30T16:27:54;17.90;56.10
1091;DHT22;534;48.704;9.122;2023-04-30T16:30:21;18.10;56.20
1091;DHT22;534;48.704;9.122;2023-04-30T16:32:49;18.00;55.30
1091;DHT22;534;48.704;9.122;2023-04-30T16:38:37;17.90;55.10
1091;DHT22;534;48.704;9.122;2023-04-30T16:41:05;17.80;55.70
1091;DHT22;534;48.704;9.122;2023-04-30T16:43:32;17.70;56.10
1091;DHT22;534;48.704;9.122;2023-04-30T16:45:58;17.50;56.20
1091;DHT22;534;48.704;9.122;2023-04-30T16:48:25;17.50;56.70
1091;DHT22;534;48.704;9.122;2023-04-30T16:50:52;17.50;56.90
1091;DHT22;534;48.704;9.122;2023-04-30T16:53:19;17.40;56.80
1091;DHT22;534;48.704;9.122;2023-04-30T16:55:46;17.30;57.60
1091;DHT22;534;48.704;9.122;2023-04-30T16:58:14;17.50;57.20
1091;DHT22;534;48.704;9.122;2023-04-30T17:00:41;17.50;56.80
1091;DHT22;534;48.704;9.122;2023-04-30T17:03:07;17.60;57.00
1091;DHT22;534;48.704;9.122;2023-04-30T17:05:35;17.70;57.10
1091;DHT22;534;48.704;9.122;2023-04-30T17:08:02;17.70;57.20
1091;DHT22;534;48.704;9.122;2023-04-30T17:10:29;17.70;57.10
1091;DHT22;534;48.704;9.122;2023-04-30T17:12:56;17.60;57.00
1091;DHT22;534;48.704;9.122;2023-04-30T17:15:25;17.70;56.90
1091;DHT22;534;48.704;9.122;2023-04-30T17:17:52;17.50;56.80
1091;DHT22;534;48.704;9.122;2023-04-30T17:20:18;17.40;57.30
1091;DHT22;534;48.704;9.122;2023-04-30T17:22:45;17.40;57.30
1091;DHT22;534;48.704;9.122;2023-04-30T17:25:12;17.50;56.60
1091;DHT22;534;48.704;9.122;2023-04-30T17:27:39;17.20;57.30
1091;DHT22;534;48.704;9.122;2023-04-30T17:30:06;17.20;57.50
1091;DHT22;534;48.704;9.122;2023-04-30T17:32:35;17.30;57.60
1091;DHT22;534;48.704;9.122;2023-04-30T17:35:04;17.20;57.70
1091;DHT22;534;48.704;9.122;2023-04-30T17:37:31;17.20;57.70
1091;DHT22;534;48.704;9.122;2023-04-30T17:39:59;17.30;57.40
1091;DHT22;534;48.704;9.122;2023-04-30T17:42:25;17.40;57.50
1091;DHT22;534;48.704;9.122;2023-04-30T17:44:52;17.40;57.50
1091;DHT22;534;48.704;9.122;2023-04-30T17:47:19;17.50;57.20
1091;DHT22;534;48.704;9.122;2023-04-30T17:49:48;17.70;56.90
1091;DHT22;534;48.704;9.122;2023-04-30T17:52:15;17.70;56.90
1091;DHT22;534;48.704;9.122;2023-04-30T17:54:42;17.70;56.80
1091;DHT22;534;48.704;9.122;2023-04-30T17:57:09;17.80;56.70
1091;DHT22;534;48.704;9.122;2023-04-30T17:59:38;17.90;56.70
1091;DHT22;534;48.704;9.122;2023-04-30T18:02:05;18.00;56.60
1091;DHT22;534;48.704;9.122;2023-04-30T18:04:32;18.10;56.50
1091;DHT22;534;48.704;9.122;2023-04-30T18:07:00;18.20;56.30
1091;DHT22;534;48.704;9.122;2023-04-30T18:09:26;18.20;55.90
1091;DHT22;534;48.704;9.122;2023-04-30T18:11:54;18.10;55.80
1091;DHT22;534;48.704;9.122;2023-04-30T18:14:21;18.20;55.80
1091;DHT22;534;48.704;9.122;2023-04-30T18:16:48;18.20;55.50
1091;DHT22;534;48.704;9.122;2023-04-30T18:19:15;18.20;55.90
1091;DHT22;534;48.704;9.122;2023-04-30T18:21:42;18.20;55.80
1091;DHT22;534;48.704;9.122;2023-04-30T18:24:10;18.20;55.80
1091;DHT22;534;48.704;9.122;2023-04-30T18:26:36;18.20;55.80
1091;DHT22;534;48.704;9.122;2023-04-30T18:29:03;18.20;56.00
1091;DHT22;534;48.704;9.122;2023-04-30T18:31:30;18.20;56.10
1091;DHT22;534;48.704;9.122;2023-04-30T18:33:57;18.20;56.10
1091;DHT22;534;48.704;9.122;2023-04-30T18:36:24;18.20;56.10
1091;DHT22;534;48.704;9.122;2023-04-30T18:38:50;18.20;55.80
1091;DHT22;534;48.704;9.122;2023-04-30T18:41:18;18.20;56.10
1091;DHT22;534;48.704;9.122;2023-04-30T18:43:46;18.20;56.30
1091;DHT22;534;48.704;9.122;2023-04-30T18:46:13;18.10;56.20
1091;DHT22;534;48.704;9.122;2023-04-30T18:48:39;18.10;56.30
1091;DHT22;534;48.704;9.122;2023-04-30T18:51:06;18.00;56.20
1091;DHT22;534;48.704;9.122;2023-04-30T18:53:34;18.00;56.00
1091;DHT22;534;48.704;9.122;2023-04-30T18:56:01;18.00;56.00
1091;DHT22;534;48.704;9.122;2023-04-30T18:58:29;18.00;56.30
1091;DHT22;534;48.704;9.122;2023-04-30T19:00:55;18.00;56.30
1091;DHT22;534;48.704;9.122;2023-04-30T19:03:22;17.90;56.40
1091;DHT22;534;48.704;9.122;2023-04-30T19:05:52;17.90;56.70
1091;DHT22;534;48.704;9.122;2023-04-30T19:08:19;17.90;56.90
1091;DHT22;534;48.704;9.122;2023-04-30T19:10:47;17.90;58.20
1091;DHT22;534;48.704;9.122;2023-04-30T19:13:13;17.80;58.40
1091;DHT22;534;48.704;9.122;2023-04-30T19:15:42;17.80;58.60
1091;DHT22;534;48.704;9.122;2023-04-30T19:18:10;17.70;59.10
1091;DHT22;534;48.704;9.122;2023-04-30T19:20:38;17.60;59.50
1091;DHT22;534;48.704;9.122;2023-04-30T19:23:06;17.60;59.70
1091;DHT22;534;48.704;9.122;2023-04-30T19:25:35;17.60;59.70
1091;DHT22;534;48.704;9.122;2023-04-30T19:28:01;17.50;60.00
1091;DHT22;534;48.704;9.122;2023-04-30T19:30:28;17.40;60.20
1091;DHT22;534;48.704;9.122;2023-04-30T19:32:56;17.40;60.60
1091;DHT22;534;48.704;9.122;2023-04-30T19:35:23;17.30;61.20
1091;DHT22;534;48.704;9.122;2023-04-30T19:37:50;17.30;61.40
1091;DHT22;534;48.704;9.122;2023-04-30T19:40:17;17.20;61.60
1091;DHT22;534;48.704;9.122;2023-04-30T19:42:43;17.10;61.70
1091;DHT22;534;48.704;9.122;2023-04-30T19:45:12;17.10;61.80
1091;DHT22;534;48.704;9.122;2023-04-30T19:47:38;17.00;62.00
1091;DHT22;534;48.704;9.122;2023-04-30T19:50:07;17.00;62.20
1091;DHT22;534;48.704;9.122;2023-04-30T19:52:34;16.90;62.40
1091;DHT22;534;48.704;9.122;2023-04-30T19:55:01;16.90;62.70
1091;DHT22;534;48.704;9.122;2023-04-30T19:57:28;16.80;62.70
1091;DHT22;534;48.704;9.122;2023-04-30T19:59:59;16.80;63.10
1091;DHT22;534;48.704;9.122;2023-04-30T20:02:26;16.70;62.70
1091;DHT22;534;48.704;9.122;2023-04-30T20:04:53;16.70;62.90
1091;DHT22;534;48.704;9.122;2023-04-30T20:07:22;16.60;63.20
1091;DHT22;534;48.704;9.122;2023-04-30T20:09:49;16.50;63.60
1091;DHT22;534;48.704;9.122;2023-04-30T20:12:16;16.50;63.60
1091;DHT22;534;48.704;9.122;2023-04-30T20:14:42;16.40;63.80
1091;DHT22;534;48.704;9.122;2023-04-30T20:17:09;16.40;63.90
1091;DHT22;534;48.704;9.122;2023-04-30T20:19:37;16.40;64.10
1091;DHT22;534;48.704;9.122;2023-04-30T20:22:04;16.40;64.30
1091;DHT22;534;48.704;9.122;2023-04-30T20:24:38;16.30;64.50